Time;durP1;ratioP1;P1;durP2;ratioP2;P2;SDS_P1;SDS_P2;PMS_P1;PMS_P2;Temp;Humidity;BMP_temperature;BMP_pressure;BME280_temperature;BME280_humidity;BME280_pressure;Samples;Min_cycle;Max_cycle;Signal;HPM_P1;HPM_P2
2023/03/04 00:02:09;;;;;;;118.68;37.60;;;10.00;88.20;;;;;;5027766;28;20026;-54
2023/03/04 00:04:34;;;;;;;136.75;36.85;;;10.00;88.10;;;;;;5027832;28;20077;-55
2023/03/04 00:07:00;;;;;;;117.60;36.45;;;10.00;88.30;;;;;;5027988;28;20030;-55
2023/03/04 00:09:25;;;;;;;140.35;37.50;;;9.90;88.20;;;;;;5027833;28;20092;-55
2023/03/04 00:11:51;;;;;;;138.52;37.60;;;9.90;88.30;;;;;;5027692;28;20418;-54
2023/03/04 00:14:16;;;;;;;128.00;36.40;;;9.90;88.30;;;;;;5027485;28;20093;-55
2023/03/04 00:16:42;;;;;;;118.28;36.22;;;9.90;88.30;;;;;;5027584;28;20045;-55
2023/03/04 00:19:09;;;;;;;99.97;36.03;;;9.90;89.00;;;;;;5027693;28;20029;-54
2023/03/04 00:21:34;;;;;;;124.53;36.70;;;9.90;88.30;;;;;;5027753;28;20060;-55
2023/03/04 00:24:00;;;;;;;108.30;34.83;;;9.90;88.40;;;;;;5027459;28;20030;-54
2023/03/04 00:26:26;;;;;;;102.22;35.80;;;9.80;88.30;;;;;;5027612;28;20033;-55
2023/03/04 00:28:51;;;;;;;104.72;36.03;;;9.80;88.40;;;;;;5027597;28;20026;-54
2023/03/04 00:31:17;;;;;;;127.38;37.95;;;9.80;88.40;;;;;;5027213;28;20072;-54
2023/03/04 00:33:43;;;;;;;103.28;38.22;;;9.80;88.50;;;;;;5027241;28;20061;-54
2023/03/04 00:36:09;;;;;;;102.28;35.30;;;9.80;88.50;;;;;;5027353;28;20057;-54
2023/03/04 00:38:34;;;;;;;99.93;34.33;;;9.80;88.50;;;;;;5026138;28;20091;-54
2023/03/04 00:41:00;;;;;;;97.03;33.00;;;9.70;88.50;;;;;;5027328;28;20083;-54
2023/03/04 00:43:25;;;;;;;107.55;35.00;;;9.80;89.10;;;;;;5025626;28;20038;-54
2023/03/04 00:45:51;;;;;;;104.60;35.13;;;9.70;88.60;;;;;;5027230;28;20034;-55
2023/03/04 00:48:16;;;;;;;96.55;33.83;;;9.80;88.70;;;;;;5027144;28;20025;-54
2023/03/04 00:50:42;;;;;;;105.18;35.90;;;9.70;88.70;;;;;;5026963;28;20030;-55
2023/03/04 00:53:08;;;;;;;96.60;34.35;;;9.70;88.70;;;;;;5027024;28;20136;-54
2023/03/04 00:55:33;;;;;;;96.88;33.65;;;9.70;89.40;;;;;;5025716;28;20136;-55
2023/03/04 00:57:59;;;;;;;100.85;35.97;;;9.70;88.70;;;;;;5026473;28;20029;-54
2023/03/04 01:00:24;;;;;;;104.15;33.63;;;9.60;88.70;;;;;;5026714;28;20032;-55
2023/03/04 01:02:50;;;;;;;92.88;33.63;;;9.60;88.80;;;;;;5025315;28;20038;-54
2023/03/04 01:05:16;;;;;;;115.38;35.88;;;9.60;88.80;;;;;;5026802;28;20475;-54
2023/03/04 01:07:41;;;;;;;96.32;33.30;;;9.60;88.80;;;;;;5026623;28;20048;-54
2023/03/04 01:10:08;;;;;;;94.07;34.05;;;9.60;88.90;;;;;;5026627;28;20096;-55
2023/03/04 01:12:33;;;;;;;72.18;33.47;;;9.50;88.80;;;;;;5026835;28;20029;-54
2023/03/04 01:14:59;;;;;;;76.85;32.17;;;9.60;88.90;;;;;;5026524;28;20026;-54
2023/03/04 01:17:24;;;;;;;85.78;32.80;;;9.50;88.90;;;;;;5026450;28;20375;-54
2023/03/04 01:19:50;;;;;;;81.88;32.08;;;9.50;88.90;;;;;;5026426;28;20209;-54
2023/03/04 01:22:17;;;;;;;91.00;33.58;;;9.50;88.90;;;;;;5026032;28;20086;-54
2023/03/04 01:24:43;;;;;;;87.97;30.92;;;9.50;88.90;;;;;;5026292;28;20335;-55
2023/03/04 01:27:09;;;;;;;83.28;33.40;;;9.50;88.90;;;;;;5026276;28;20033;-54
2023/03/04 01:29:34;;;;;;;86.72;32.08;;;9.50;88.90;;;;;;5026309;28;20041;-54
2023/03/04 01:32:00;;;;;;;87.57;33.20;;;9.50;89.00;;;;;;5026362;28;20173;-54
2023/03/04 01:34:25;;;;;;;88.55;32.42;;;9.40;89.00;;;;;;5026244;28;20037;-54
2023/03/04 01:36:51;;;;;;;79.82;33.78;;;9.40;89.10;;;;;;5026037;28;20029;-54
2023/03/04 01:39:16;;;;;;;80.70;31.40;;;9.40;89.10;;;;;;5026042;28;20443;-55
2023/03/04 01:41:42;;;;;;;100.15;34.17;;;9.40;89.20;;;;;;5026051;28;20037;-55
2023/03/04 01:44:08;;;;;;;85.40;32.05;;;9.40;89.30;;;;;;5025933;28;20336;-54
2023/03/04 01:46:34;;;;;;;83.90;32.38;;;9.40;89.30;;;;;;5026061;28;20052;-54
2023/03/04 01:48:59;;;;;;;81.65;32.42;;;9.30;89.40;;;;;;5025517;28;20029;-54
2023/03/04 01:51:25;;;;;;;98.60;33.10;;;9.30;89.40;;;;;;5026001;28;20088;-54
2023/03/04 01:53:53;;;;;;;84.88;33.40;;;9.30;89.50;;;;;;5024359;28;20117;-54
2023/03/04 01:56:36;;;;;;;84.57;31.98;;;9.30;89.60;;;;;;5024487;28;20109;-55
2023/03/04 01:59:08;;;;;;;72.50;30.48;;;9.20;89.60;;;;;;5025602;28;20038;-55
2023/03/04 02:01:34;;;;;;;82.72;32.38;;;9.20;89.60;;;;;;5025821;28;20033;-54
2023/03/04 02:03:59;;;;;;;74.28;32.72;;;9.20;89.70;;;;;;5025672;28;20082;-55
2023/03/04 02:06:25;;;;;;;78.60;32.42;;;9.20;89.70;;;;;;5024210;28;20451;-54
2023/03/04 02:08:50;;;;;;;85.55;32.10;;;9.20;89.70;;;;;;5023505;28;20071;-54
2023/03/04 02:11:16;;;;;;;80.32;31.58;;;9.20;89.80;;;;;;5024342;28;20121;-54
2023/03/04 02:13:41;;;;;;;75.93;32.03;;;9.10;89.70;;;;;;5025576;28;20034;-54
2023/03/04 02:16:07;;;;;;;76.30;32.20;;;9.10;89.80;;;;;;5025424;28;20085;-54
2023/03/04 02:18:32;;;;;;;83.03;31.70;;;9.10;89.90;;;;;;5025386;28;20037;-55
2023/03/04 02:21:08;;;;;;;79.20;32.33;;;9.10;90.00;;;;;;5025052;28;20026;-54
2023/03/04 02:23:48;;;;;;;78.30;32.70;;;9.10;89.90;;;;;;5024024;28;20037;-54
2023/03/04 02:26:21;;;;;;;70.07;32.42;;;9.00;89.90;;;;;;5008353;28;20072;-55
2023/03/04 02:28:48;;;;;;;75.03;34.35;;;9.10;90.00;;;;;;5023865;28;20030;-54
2023/03/04 02:31:40;;;;;;;76.00;32.72;;;9.00;89.90;;;;;;5025387;28;20025;-54
2023/03/04 02:34:10;;;;;;;70.68;31.80;;;9.00;89.90;;;;;;5024814;28;20056;-54
2023/03/04 02:36:36;;;;;;;81.82;32.05;;;9.00;90.00;;;;;;5025148;28;20037;-54
2023/03/04 02:39:09;;;;;;;77.28;32.28;;;9.00;90.00;;;;;;5023820;28;20030;-54
2023/03/04 02:41:35;;;;;;;72.53;32.15;;;9.00;90.00;;;;;;5023854;28;20025;-54
2023/03/04 02:44:00;;;;;;;72.25;32.15;;;8.90;90.00;;;;;;5024868;28;20081;-54
2023/03/04 02:46:26;;;;;;;76.55;31.98;;;8.90;90.00;;;;;;5025092;28;20070;-54
2023/03/04 02:48:52;;;;;;;70.03;32.30;;;8.90;90.10;;;;;;5024875;28;20454;-54
2023/03/04 02:51:17;;;;;;;66.80;32.35;;;8.80;90.10;;;;;;5023582;28;20431;-54
2023/03/04 02:53:43;;;;;;;65.47;31.42;;;8.80;90.10;;;;;;5024867;28;20034;-54
2023/03/04 02:56:08;;;;;;;83.80;32.90;;;8.80;90.10;;;;;;5007309;28;20025;-54
2023/03/04 02:58:34;;;;;;;64.85;32.13;;;8.80;90.20;;;;;;5025071;28;20038;-54
2023/03/04 03:00:59;;;;;;;67.25;32.60;;;8.80;90.20;;;;;;5024909;28;20026;-54
2023/03/04 03:03:25;;;;;;;69.43;30.95;;;8.80;90.20;;;;;;5024625;28;20049;-55
2023/03/04 03:05:51;;;;;;;74.18;33.72;;;8.80;90.20;;;;;;5024954;28;20030;-54
2023/03/04 03:08:17;;;;;;;63.92;32.13;;;8.80;90.20;;;;;;5023492;28;20086;-55
2023/03/04 03:10:42;;;;;;;67.15;32.33;;;8.70;90.20;;;;;;5024662;28;20049;-54
2023/03/04 03:13:08;;;;;;;68.40;34.38;;;8.70;90.20;;;;;;5023300;28;20054;-54
2023/03/04 03:15:34;;;;;;;69.43;31.63;;;8.70;90.20;;;;;;5024891;28;20116;-54
2023/03/04 03:17:59;;;;;;;60.08;32.90;;;8.70;90.20;;;;;;5024893;28;20093;-54
2023/03/04 03:20:25;;;;;;;66.95;32.53;;;8.70;90.20;;;;;;5025721;28;20038;-55
2023/03/04 03:22:51;;;;;;;72.35;32.20;;;8.70;90.20;;;;;;5028464;28;20038;-55
2023/03/04 03:25:16;;;;;;;67.40;32.00;;;8.70;90.20;;;;;;5010846;28;20052;-54
2023/03/04 03:27:42;;;;;;;59.13;31.67;;;8.70;90.30;;;;;;5028519;28;20166;-55
2023/03/04 03:30:09;;;;;;;50.30;30.92;;;8.60;90.30;;;;;;5028548;28;20049;-54
2023/03/04 03:32:34;;;;;;;55.40;31.23;;;8.60;90.40;;;;;;5028490;28;20089;-54
2023/03/04 03:35:00;;;;;;;57.15;30.50;;;8.70;90.60;;;;;;5028512;28;20029;-54
2023/03/04 03:37:25;;;;;;;52.58;32.35;;;8.70;90.60;;;;;;5028187;28;20026;-54
2023/03/04 03:39:51;;;;;;;62.05;32.13;;;8.60;90.60;;;;;;5028183;28;20125;-54
2023/03/04 03:42:17;;;;;;;62.00;33.67;;;8.60;90.60;;;;;;5028082;28;20038;-54
2023/03/04 03:44:42;;;;;;;51.75;30.92;;;8.60;90.70;;;;;;5028211;28;20148;-54
2023/03/04 03:47:08;;;;;;;57.42;32.42;;;8.60;90.70;;;;;;5028251;28;20033;-54
2023/03/04 03:49:33;;;;;;;62.58;31.77;;;8.60;90.70;;;;;;5028005;28;20061;-55
2023/03/04 03:51:59;;;;;;;50.83;30.00;;;8.60;90.70;;;;;;5028255;28;20057;-54
2023/03/04 03:54:24;;;;;;;58.67;30.48;;;8.60;90.80;;;;;;5028011;28;20167;-55
2023/03/04 03:56:50;;;;;;;59.00;31.98;;;8.60;90.90;;;;;;5028109;28;20034;-54
2023/03/04 03:59:16;;;;;;;57.67;32.38;;;8.60;90.80;;;;;;5028086;28;20180;-54
2023/03/04 04:01:42;;;;;;;56.83;32.22;;;8.60;90.80;;;;;;5027716;28;20030;-54
2023/03/04 04:04:08;;;;;;;58.03;32.60;;;8.60;90.80;;;;;;5027880;28;20033;-54
2023/03/04 04:06:33;;;;;;;56.38;32.05;;;8.50;90.80;;;;;;5027731;28;20026;-55
2023/03/04 04:08:59;;;;;;;63.85;31.75;;;8.50;90.70;;;;;;5027429;28;20030;-55
2023/03/04 04:11:24;;;;;;;55.20;30.95;;;8.50;90.80;;;;;;5027801;28;20118;-54
2023/03/04 04:13:50;;;;;;;56.63;33.22;;;8.50;90.80;;;;;;5027719;28;20018;-55
2023/03/04 04:16:15;;;;;;;58.38;34.67;;;8.50;90.80;;;;;;5027718;28;20071;-54
2023/03/04 04:18:41;;;;;;;55.40;33.30;;;8.50;90.90;;;;;;5027532;28;20034;-54
2023/03/04 04:21:06;;;;;;;49.17;31.95;;;8.50;90.90;;;;;;5027413;28;20125;-54
2023/03/04 04:23:32;;;;;;;57.05;32.17;;;8.40;91.10;;;;;;5027267;28;20030;-55
2023/03/04 04:25:58;;;;;;;53.42;32.70;;;8.40;90.80;;;;;;5027534;28;20452;-54
2023/03/04 04:28:23;;;;;;;56.30;32.22;;;8.40;90.90;;;;;;5027383;28;20018;-55
2023/03/04 04:30:49;;;;;;;53.65;32.90;;;8.40;90.90;;;;;;5026673;28;20105;-54
2023/03/04 04:33:15;;;;;;;51.60;33.70;;;8.40;91.20;;;;;;5027386;28;20125;-54
2023/03/04 04:35:40;;;;;;;56.28;35.35;;;8.40;90.90;;;;;;5025820;28;20141;-55
2023/03/04 04:38:06;;;;;;;85.65;37.72;;;8.40;91.10;;;;;;5026187;28;20461;-55
2023/03/04 04:40:32;;;;;;;89.13;36.78;;;8.30;90.80;;;;;;5027308;28;20034;-54
2023/03/04 04:42:57;;;;;;;76.10;37.55;;;8.30;90.80;;;;;;5026930;28;20041;-54
2023/03/04 04:45:23;;;;;;;84.90;37.67;;;8.30;90.80;;;;;;5027085;28;20115;-54
2023/03/04 04:47:53;;;;;;;81.25;35.88;;;8.30;90.80;;;;;;5027020;28;20014;-54
2023/03/04 04:50:18;;;;;;;109.10;38.67;;;8.30;90.80;;;;;;5026815;28;20046;-54
2023/03/04 04:52:44;;;;;;;82.20;37.95;;;8.30;90.70;;;;;;5026836;28;20446;-54
2023/03/04 04:55:10;;;;;;;67.95;35.88;;;8.30;90.70;;;;;;5026901;28;20045;-54
2023/03/04 04:57:35;;;;;;;94.38;38.00;;;8.30;90.70;;;;;;5025559;28;20550;-55
2023/03/04 05:00:02;;;;;;;64.80;34.88;;;8.30;90.70;;;;;;5026683;28;20057;-54
2023/03/04 05:02:27;;;;;;;66.85;35.42;;;8.30;90.70;;;;;;5026648;28;20037;-54
2023/03/04 05:04:53;;;;;;;69.15;35.17;;;8.30;90.70;;;;;;5026740;28;20057;-54
2023/03/04 05:07:18;;;;;;;66.72;36.45;;;8.30;90.70;;;;;;5025254;28;20451;-54
2023/03/04 05:09:44;;;;;;;71.97;35.05;;;8.30;90.70;;;;;;5026694;28;20168;-54
2023/03/04 05:12:10;;;;;;;60.08;35.60;;;8.20;90.70;;;;;;5025326;28;20041;-54
2023/03/04 05:14:35;;;;;;;66.57;35.75;;;8.20;90.70;;;;;;5026431;28;20037;-54
2023/03/04 05:17:01;;;;;;;71.95;35.80;;;8.20;90.70;;;;;;5026525;28;20064;-55
2023/03/04 05:19:27;;;;;;;60.63;35.60;;;8.20;90.70;;;;;;5026145;28;20049;-54
2023/03/04 05:21:52;;;;;;;59.05;34.95;;;8.20;90.70;;;;;;5026596;28;20049;-55
2023/03/04 05:24:18;;;;;;;61.28;33.95;;;8.20;90.60;;;;;;5026511;28;20045;-55
2023/03/04 05:26:43;;;;;;;61.20;34.15;;;8.20;90.70;;;;;;5026484;28;20049;-54
2023/03/04 05:29:09;;;;;;;72.72;34.83;;;8.20;90.70;;;;;;5026292;28;20105;-55
2023/03/04 05:31:34;;;;;;;64.78;35.38;;;8.20;90.80;;;;;;5026256;28;20064;-55
2023/03/04 05:34:00;;;;;;;57.20;36.03;;;8.20;90.80;;;;;;5025955;28;20074;-54
2023/03/04 05:36:25;;;;;;;56.45;35.35;;;8.20;90.80;;;;;;5026275;28;20036;-55
2023/03/04 05:38:51;;;;;;;63.38;35.38;;;8.10;90.90;;;;;;5026034;28;20053;-55
2023/03/04 05:41:21;;;;;;;62.25;34.92;;;8.10;90.90;;;;;;5024509;28;20072;-55
2023/03/04 05:43:47;;;;;;;69.28;35.42;;;8.10;90.90;;;;;;5024944;28;20057;-55
2023/03/04 05:46:14;;;;;;;64.55;34.10;;;8.10;90.90;;;;;;5026169;28;20030;-55
2023/03/04 05:48:39;;;;;;;69.68;35.72;;;8.10;91.00;;;;;;5024880;28;20037;-55
2023/03/04 05:51:05;;;;;;;63.65;37.00;;;8.10;91.10;;;;;;5025849;28;20038;-55
2023/03/04 05:53:30;;;;;;;65.30;35.20;;;8.10;91.10;;;;;;5025847;28;20022;-54
2023/03/04 05:55:58;;;;;;;61.15;35.13;;;8.10;91.10;;;;;;5025903;28;20048;-55
2023/03/04 05:58:23;;;;;;;69.60;37.97;;;8.00;91.00;;;;;;5025811;28;20153;-54
2023/03/04 06:00:49;;;;;;;59.45;35.63;;;8.00;91.00;;;;;;5025836;28;20433;-55
2023/03/04 06:03:19;;;;;;;65.45;37.38;;;8.00;91.00;;;;;;5025533;28;20034;-54
2023/03/04 06:05:44;;;;;;;64.43;35.35;;;8.00;91.00;;;;;;5025722;28;20056;-54
2023/03/04 06:08:10;;;;;;;61.97;35.08;;;8.00;91.30;;;;;;5025766;28;20021;-54
2023/03/04 06:10:36;;;;;;;62.45;35.67;;;8.00;91.00;;;;;;5025492;28;20054;-54
2023/03/04 06:13:02;;;;;;;59.22;35.78;;;8.00;91.00;;;;;;5025526;28;20036;-55
2023/03/04 06:15:27;;;;;;;62.03;36.53;;;8.00;91.00;;;;;;5025520;28;20048;-54
2023/03/04 06:17:53;;;;;;;62.20;35.92;;;7.90;91.00;;;;;;5025572;28;20037;-54
2023/03/04 06:20:18;;;;;;;61.83;36.40;;;7.90;91.00;;;;;;5025311;28;20124;-56
2023/03/04 06:22:44;;;;;;;59.35;34.80;;;7.90;91.00;;;;;;5025288;28;20022;-56
2023/03/04 06:25:10;;;;;;;52.35;34.30;;;7.90;91.40;;;;;;5025354;28;20033;-56
2023/03/04 06:27:35;;;;;;;60.45;34.08;;;7.90;91.00;;;;;;5024136;28;20022;-56
2023/03/04 06:30:01;;;;;;;62.53;33.70;;;7.90;91.00;;;;;;5025166;28;20048;-56
2023/03/04 06:32:26;;;;;;;57.08;34.53;;;7.90;91.00;;;;;;5025251;28;20053;-56
2023/03/04 06:34:52;;;;;;;56.10;33.90;;;7.90;91.00;;;;;;5023783;28;20072;-56
2023/03/04 06:37:18;;;;;;;62.72;34.50;;;7.80;91.00;;;;;;5025208;28;20029;-56
2023/03/04 06:39:44;;;;;;;58.90;34.70;;;7.80;91.00;;;;;;5025146;28;20034;-56
2023/03/04 06:42:10;;;;;;;54.13;34.08;;;7.80;91.00;;;;;;5025107;28;20030;-56
2023/03/04 06:44:35;;;;;;;54.55;34.13;;;7.80;91.00;;;;;;5025107;28;20053;-56
2023/03/04 06:47:01;;;;;;;57.17;32.55;;;7.80;91.30;;;;;;5025016;28;20053;-56
2023/03/04 06:49:26;;;;;;;51.67;31.85;;;7.80;91.00;;;;;;5024757;28;20044;-56
2023/03/04 06:51:52;;;;;;;44.95;32.95;;;7.80;91.00;;;;;;5024932;28;20026;-56
2023/03/04 06:54:18;;;;;;;54.72;33.45;;;7.70;91.00;;;;;;5024612;28;20053;-56
2023/03/04 06:56:44;;;;;;;55.03;33.42;;;7.80;91.00;;;;;;5024947;28;20087;-56
2023/03/04 06:59:10;;;;;;;53.60;33.22;;;7.80;91.00;;;;;;5024730;28;20030;-56
2023/03/04 07:01:36;;;;;;;54.65;32.05;;;7.70;91.00;;;;;;5024957;28;20022;-56
2023/03/04 07:04:02;;;;;;;48.58;34.15;;;7.70;91.00;;;;;;5023414;28;20439;-56
2023/03/04 07:06:28;;;;;;;52.97;32.50;;;7.70;91.30;;;;;;5023360;28;20133;-56
2023/03/04 07:08:53;;;;;;;52.22;33.63;;;7.70;91.00;;;;;;5024843;28;20034;-56
2023/03/04 07:11:19;;;;;;;51.35;32.40;;;7.70;91.00;;;;;;5024992;28;20061;-57
2023/03/04 07:13:45;;;;;;;51.97;32.38;;;7.70;91.00;;;;;;5024654;28;20032;-56
2023/03/04 07:16:12;;;;;;;53.33;32.45;;;7.70;91.00;;;;;;5024776;28;20042;-56
2023/03/04 07:18:38;;;;;;;53.78;34.33;;;7.70;91.00;;;;;;5024584;28;20030;-56
2023/03/04 07:21:04;;;;;;;50.45;33.05;;;7.70;91.00;;;;;;5023300;28;20037;-56
2023/03/04 07:23:29;;;;;;;47.10;32.58;;;7.70;91.00;;;;;;5024291;28;20037;-56
2023/03/04 07:25:55;;;;;;;57.55;34.35;;;7.70;91.30;;;;;;5024243;28;20030;-56
2023/03/04 07:28:20;;;;;;;51.28;33.70;;;7.70;91.00;;;;;;5024562;28;20327;-56
2023/03/04 07:30:46;;;;;;;53.58;32.45;;;7.70;91.00;;;;;;5024480;28;20153;-56
2023/03/04 07:33:12;;;;;;;47.75;32.50;;;7.70;91.00;;;;;;5024357;28;20030;-56
2023/03/04 07:35:38;;;;;;;45.47;31.98;;;7.70;91.00;;;;;;5024380;28;20038;-56
2023/03/04 07:38:03;;;;;;;54.05;33.30;;;7.70;91.00;;;;;;5024360;28;20025;-56
2023/03/04 07:40:29;;;;;;;61.83;32.85;;;7.70;91.00;;;;;;5024604;28;20049;-56
2023/03/04 07:42:55;;;;;;;52.60;33.70;;;7.70;91.00;;;;;;5024334;28;20124;-56
2023/03/04 07:45:20;;;;;;;51.55;32.38;;;7.70;91.00;;;;;;5024571;28;20052;-56
2023/03/04 07:47:46;;;;;;;48.08;32.65;;;7.70;90.90;;;;;;5024454;28;20022;-56
2023/03/04 07:50:11;;;;;;;52.53;31.38;;;7.70;90.90;;;;;;5023976;28;20041;-56
2023/03/04 07:52:38;;;;;;;50.53;32.38;;;7.70;90.80;;;;;;5024373;28;20026;-56
2023/03/04 07:55:04;;;;;;;50.03;32.85;;;7.70;90.80;;;;;;5033991;28;20064;-56
2023/03/04 07:57:30;;;;;;;53.35;30.95;;;7.70;90.80;;;;;;5042672;28;20025;-56
2023/03/04 07:59:55;;;;;;;45.55;31.58;;;7.70;90.80;;;;;;5041948;28;20053;-56
2023/03/04 08:02:21;;;;;;;47.15;31.73;;;7.70;90.80;;;;;;5041942;28;20040;-56
2023/03/04 08:04:46;;;;;;;49.72;32.45;;;7.70;90.80;;;;;;5043026;28;20029;-56
2023/03/04 08:07:12;;;;;;;51.25;30.98;;;7.70;90.80;;;;;;5045741;28;20032;-56
2023/03/04 08:16:31;;;;;;;56.05;33.20;;;7.70;90.70;;;;;;5046626;28;20048;-56
2023/03/04 08:18:58;;;;;;;46.78;32.10;;;7.70;90.80;;;;;;5044068;28;20022;-56
2023/03/04 08:21:24;;;;;;;51.33;32.03;;;7.70;90.80;;;;;;5047100;28;20025;-56
2023/03/04 08:23:50;;;;;;;47.90;32.03;;;7.70;90.70;;;;;;5043283;28;20112;-56
2023/03/04 08:26:43;;;;;;;45.35;31.20;;;7.70;90.70;;;;;;5028866;28;20033;-56
2023/03/04 08:29:11;;;;;;;57.22;32.72;;;7.70;90.70;;;;;;5036530;28;20034;-56
2023/03/04 08:35:01;;;;;;;51.10;32.13;;;7.70;90.70;;;;;;5047078;28;20093;-56
2023/03/04 08:37:27;;;;;;;54.70;32.22;;;7.70;90.70;;;;;;5046941;28;20025;-56
2023/03/04 08:39:53;;;;;;;53.13;31.83;;;7.70;90.70;;;;;;5046717;28;20037;-56
2023/03/04 08:42:19;;;;;;;55.15;32.35;;;7.70;90.70;;;;;;5046737;28;20109;-56
2023/03/04 08:44:44;;;;;;;49.40;32.28;;;7.70;90.60;;;;;;5046774;28;20037;-56
2023/03/04 08:47:10;;;;;;;53.75;33.10;;;7.80;90.60;;;;;;5046719;28;20103;-56
2023/03/04 08:49:36;;;;;;;60.58;33.97;;;7.80;90.60;;;;;;5046424;28;20087;-57
2023/03/04 08:52:01;;;;;;;58.83;34.38;;;7.80;90.60;;;;;;5044815;28;20033;-56
2023/03/04 08:54:27;;;;;;;58.70;33.88;;;7.70;90.60;;;;;;5043601;28;20029;-56
2023/03/04 08:56:52;;;;;;;61.65;33.10;;;7.80;90.70;;;;;;5045891;28;20043;-56
2023/03/04 08:59:18;;;;;;;70.13;33.03;;;7.70;90.70;;;;;;5040469;28;20348;-56
2023/03/04 09:01:44;;;;;;;60.67;33.95;;;7.80;90.70;;;;;;5045366;28;20032;-56
2023/03/04 09:04:09;;;;;;;51.58;34.13;;;7.80;90.80;;;;;;5045928;28;20025;-56
2023/03/04 09:06:35;;;;;;;65.70;32.88;;;7.80;90.80;;;;;;5044718;28;20033;-56
2023/03/04 09:09:00;;;;;;;55.15;32.83;;;7.80;90.80;;;;;;5045542;28;20060;-56
2023/03/04 09:11:26;;;;;;;53.65;33.25;;;7.80;91.10;;;;;;5043276;28;20097;-56
2023/03/04 09:13:52;;;;;;;56.38;33.53;;;7.90;90.80;;;;;;5027458;28;20041;-56
2023/03/04 09:16:17;;;;;;;72.90;33.90;;;7.90;90.70;;;;;;5033962;28;20061;-56
2023/03/04 09:18:43;;;;;;;62.13;33.85;;;7.90;90.80;;;;;;5032223;28;20030;-56
2023/03/04 09:21:09;;;;;;;71.15;35.97;;;7.90;90.80;;;;;;5032263;28;20092;-56
2023/03/04 09:23:35;;;;;;;71.65;34.35;;;8.00;90.80;;;;;;5030754;28;20045;-56
2023/03/04 09:26:00;;;;;;;75.68;36.60;;;8.00;90.80;;;;;;5030178;28;20044;-56
2023/03/04 09:28:26;;;;;;;75.50;35.28;;;8.00;90.80;;;;;;5039354;28;20115;-56
2023/03/04 09:30:51;;;;;;;104.28;39.05;;;8.00;90.80;;;;;;5036330;28;20030;-56
2023/03/04 09:33:17;;;;;;;79.75;36.00;;;8.10;90.90;;;;;;5029988;28;20040;-56
2023/03/04 09:35:43;;;;;;;102.72;38.38;;;8.10;91.00;;;;;;5034631;28;20037;-57
2023/03/04 09:38:08;;;;;;;133.77;41.35;;;8.10;90.90;;;;;;5030767;28;20037;-56
2023/03/04 09:40:40;;;;;;;146.68;41.90;;;8.20;91.00;;;;;;5029418;28;20052;-56
2023/03/04 09:43:06;;;;;;;117.60;41.08;;;8.20;91.10;;;;;;5046661;28;20124;-57
2023/03/04 09:45:38;;;;;;;125.97;42.45;;;8.20;91.40;;;;;;5031336;28;20025;-56
2023/03/04 09:48:05;;;;;;;151.65;42.90;;;8.20;91.20;;;;;;5049240;28;20113;-56
2023/03/04 09:50:30;;;;;;;190.38;45.80;;;8.30;91.20;;;;;;5032497;28;20033;-57
2023/03/04 09:53:06;;;;;;;227.20;50.38;;;8.30;91.20;;;;;;5032402;28;20071;-56
2023/03/04 09:55:43;;;;;;;204.70;48.00;;;8.40;91.30;;;;;;5044684;28;20132;-56
2023/03/04 09:58:31;;;;;;;179.43;48.63;;;8.40;91.30;;;;;;5032382;28;20085;-56
2023/03/04 10:01:06;;;;;;;146.30;44.67;;;8.40;91.30;;;;;;5020684;28;20033;-56
2023/03/04 10:03:43;;;;;;;158.73;45.83;;;8.50;91.30;;;;;;5048058;28;20134;-56
2023/03/04 10:06:12;;;;;;;164.05;44.83;;;8.50;91.20;;;;;;5036666;28;20033;-56
2023/03/04 10:08:57;;;;;;;173.73;48.38;;;8.50;91.20;;;;;;5039958;28;20036;-56
2023/03/04 10:11:35;;;;;;;154.32;45.55;;;8.60;91.30;;;;;;5033170;28;20450;-56
2023/03/04 10:14:22;;;;;;;192.82;48.80;;;8.60;91.30;;;;;;5056620;28;20037;-56
2023/03/04 10:17:05;;;;;;;180.70;48.05;;;8.60;91.30;;;;;;5030981;28;20089;-56
2023/03/04 10:19:55;;;;;;;192.20;48.10;;;8.60;91.30;;;;;;5038992;28;20037;-56
2023/03/04 10:22:26;;;;;;;217.85;49.42;;;8.70;91.40;;;;;;5031404;28;20032;-56
2023/03/04 10:24:54;;;;;;;217.10;49.55;;;8.70;91.50;;;;;;5038763;28;20110;-56
2023/03/04 10:27:22;;;;;;;179.65;47.78;;;8.70;91.50;;;;;;5046481;28;20057;-56
2023/03/04 10:29:48;;;;;;;205.90;51.00;;;8.80;91.50;;;;;;5043488;28;20090;-56
2023/03/04 10:32:15;;;;;;;249.75;52.72;;;8.80;91.50;;;;;;5037912;28;20025;-56
2023/03/04 10:34:41;;;;;;;263.38;53.38;;;8.90;91.90;;;;;;5028661;28;20031;-56
2023/03/04 10:37:07;;;;;;;216.32;51.65;;;8.90;91.60;;;;;;5041213;28;20040;-56
2023/03/04 10:39:35;;;;;;;199.02;50.88;;;8.90;91.50;;;;;;5022985;28;20090;-56
2023/03/04 10:42:03;;;;;;;249.63;55.25;;;9.00;91.60;;;;;;5045689;28;20094;-57
2023/03/04 10:44:29;;;;;;;238.75;54.35;;;9.00;91.60;;;;;;5038090;28;20059;-56
2023/03/04 10:46:56;;;;;;;235.93;53.05;;;9.00;91.60;;;;;;5041650;28;20026;-56
2023/03/04 10:49:23;;;;;;;209.80;51.63;;;9.10;91.60;;;;;;5032253;28;20053;-55
2023/03/04 10:51:54;;;;;;;276.27;58.30;;;9.10;91.60;;;;;;5039863;28;20075;-56
2023/03/04 10:54:44;;;;;;;265.70;56.58;;;9.20;91.60;;;;;;5044947;28;20101;-56
2023/03/04 10:57:17;;;;;;;280.65;58.05;;;9.20;91.50;;;;;;5034393;28;20041;-57
2023/03/04 10:59:46;;;;;;;228.10;54.40;;;9.20;91.60;;;;;;5037985;28;20029;-56
2023/03/04 11:02:30;;;;;;;259.98;59.15;;;9.30;91.70;;;;;;5037096;28;21377;-57
2023/03/04 11:05:10;;;;;;;325.23;62.10;;;9.30;91.70;;;;;;5031242;28;20025;-56
2023/03/04 11:07:43;;;;;;;272.95;58.60;;;9.40;91.70;;;;;;5050371;28;20024;-57
2023/03/04 11:10:27;;;;;;;288.55;60.05;;;9.40;91.60;;;;;;5040254;28;20163;-56
2023/03/04 11:12:59;;;;;;;345.83;63.80;;;9.50;91.70;;;;;;5035852;28;20469;-56
2023/03/04 11:15:26;;;;;;;305.70;63.22;;;9.50;91.70;;;;;;5054434;28;20033;-56
2023/03/04 11:17:58;;;;;;;293.90;61.92;;;9.50;91.60;;;;;;5031911;28;20056;-56
2023/03/04 11:20:30;;;;;;;346.05;65.45;;;9.60;91.60;;;;;;5029715;28;20033;-57
2023/03/04 11:22:58;;;;;;;353.58;65.03;;;9.60;91.50;;;;;;5047304;28;20044;-57
2023/03/04 11:25:31;;;;;;;283.35;61.25;;;9.60;91.50;;;;;;5035468;28;20265;-56
2023/03/04 11:27:59;;;;;;;331.40;62.63;;;9.70;91.50;;;;;;5035113;28;20104;-56
2023/03/04 11:31:05;;;;;;;312.33;63.72;;;9.70;91.20;;;;;;5018932;28;20034;-56
2023/03/04 11:33:49;;;;;;;289.77;62.90;;;9.70;91.20;;;;;;4963063;28;20410;-56
2023/03/04 11:36:35;;;;;;;332.08;65.78;;;9.70;91.20;;;;;;4989906;28;20089;-56
2023/03/04 11:39:02;;;;;;;291.30;60.72;;;9.70;91.20;;;;;;5025356;28;20115;-56
2023/03/04 11:41:31;;;;;;;329.80;61.03;;;9.80;91.20;;;;;;5042362;28;20068;-56
2023/03/04 11:43:57;;;;;;;325.10;61.70;;;9.80;91.20;;;;;;5040524;28;20108;-56
2023/03/04 11:47:16;;;;;;;288.33;63.35;;;9.80;91.20;;;;;;5078109;28;20365;-56
2023/03/04 11:50:09;;;;;;;385.95;71.65;;;9.90;91.20;;;;;;5021374;28;20041;-56
2023/03/04 11:52:45;;;;;;;302.25;62.25;;;9.90;91.10;;;;;;5062292;28;20084;-56
2023/03/04 11:55:35;;;;;;;319.50;63.00;;;10.00;91.00;;;;;;5043111;28;20043;-56
2023/03/04 11:58:41;;;;;;;354.13;70.95;;;10.00;90.70;;;;;;5044288;28;20021;-56
2023/03/04 12:01:08;;;;;;;388.05;73.60;;;10.00;90.90;;;;;;5048159;28;20115;-57
2023/03/04 12:03:59;;;;;;;419.45;74.43;;;10.10;91.00;;;;;;5048936;28;20132;-56
2023/03/04 12:07:04;;;;;;;382.75;68.95;;;10.20;91.00;;;;;;5045156;28;20037;-57
2023/03/04 12:09:45;;;;;;;380.45;68.43;;;10.20;90.90;;;;;;5035966;28;20072;-56
2023/03/04 12:12:21;;;;;;;438.08;72.97;;;10.20;90.80;;;;;;5050202;28;20037;-57
2023/03/04 12:15:24;;;;;;;338.63;68.95;;;10.30;90.70;;;;;;5054938;28;20029;-56
2023/03/04 12:17:59;;;;;;;411.35;74.20;;;10.30;90.60;;;;;;5046114;28;20029;-57
2023/03/04 12:20:26;;;;;;;374.30;68.05;;;10.40;90.50;;;;;;5046996;28;20110;-57
2023/03/04 12:23:10;;;;;;;362.80;68.93;;;10.40;90.40;;;;;;5043720;28;20119;-57
2023/03/04 12:25:36;;;;;;;367.20;67.82;;;10.50;90.30;;;;;;5030500;28;20048;-57
2023/03/04 12:28:23;;;;;;;346.73;69.20;;;10.50;90.30;;;;;;5047115;28;20040;-57
2023/03/04 12:30:49;;;;;;;443.48;74.80;;;10.50;90.30;;;;;;5061347;28;20044;-57
2023/03/04 12:33:29;;;;;;;431.38;74.68;;;10.50;90.30;;;;;;5047438;28;20034;-57
2023/03/04 12:36:04;;;;;;;395.33;74.20;;;10.50;90.20;;;;;;5024607;28;20034;-57
2023/03/04 12:38:37;;;;;;;403.98;75.20;;;10.60;90.10;;;;;;5033663;28;20044;-57
2023/03/04 12:41:27;;;;;;;450.45;85.15;;;10.60;90.10;;;;;;5043249;28;20078;-57
2023/03/04 12:44:15;;;;;;;382.98;74.63;;;10.70;90.40;;;;;;5042603;28;20447;-57
2023/03/04 12:47:07;;;;;;;386.80;70.50;;;10.70;90.10;;;;;;5022767;28;20394;-57
2023/03/04 12:49:57;;;;;;;385.63;75.70;;;10.80;90.10;;;;;;5050932;28;20037;-57
2023/03/04 12:52:50;;;;;;;431.65;77.25;;;10.80;90.10;;;;;;5042231;28;20040;-57